Time;durP1;ratioP1;P1;durP2;ratioP2;P2;SDS_P1;SDS_P2;PMS_P1;PMS_P2;Temp;Humidity;BMP_temperature;BMP_pressure;BME280_temperature;BME280_humidity;BME280_pressure;Samples;Min_cycle;Max_cycle;Signal;HPM_P1;HPM_P2
2023/02/08 00:00:49;;;;;;;28.88;18.90;;;-0.20;99.90;;;;;;4957532;28;92476;-75
2023/02/08 00:03:16;;;;;;;29.27;18.58;;;-0.20;99.90;;;;;;4957963;28;93291;-74
2023/02/08 00:05:44;;;;;;;25.42;18.50;;;-0.20;99.90;;;;;;4939303;28;95504;-75
2023/02/08 00:08:11;;;;;;;31.00;18.90;;;-0.20;99.90;;;;;;4956915;28;92532;-75
2023/02/08 00:10:38;;;;;;;29.50;17.85;;;-0.20;99.90;;;;;;4956283;28;100736;-75
2023/02/08 00:13:05;;;;;;;28.30;18.95;;;-0.20;99.90;;;;;;4957863;28;93105;-75
2023/02/08 00:15:32;;;;;;;26.02;19.15;;;-0.30;99.90;;;;;;4957751;28;92466;-74
2023/02/08 00:17:59;;;;;;;24.50;17.58;;;-0.30;99.90;;;;;;4957716;28;92493;-75
2023/02/08 00:20:26;;;;;;;29.80;18.33;;;-0.30;99.90;;;;;;4923933;28;94925;-75
2023/02/08 00:22:53;;;;;;;30.58;18.30;;;-0.30;99.90;;;;;;4940541;28;93516;-75
2023/02/08 00:25:20;;;;;;;28.17;17.35;;;-0.30;99.90;;;;;;4956396;28;92478;-75
2023/02/08 00:27:47;;;;;;;31.65;19.00;;;-0.30;99.90;;;;;;4956564;28;92564;-74
2023/02/08 00:30:14;;;;;;;26.67;17.65;;;-0.40;99.90;;;;;;4954971;28;97681;-75
2023/02/08 00:32:41;;;;;;;27.80;18.23;;;-0.40;99.90;;;;;;4957355;28;95528;-75
2023/02/08 00:35:08;;;;;;;25.95;17.42;;;-0.40;99.90;;;;;;4956446;28;92484;-74
2023/02/08 00:37:35;;;;;;;24.70;17.40;;;-0.40;99.90;;;;;;4923924;28;92586;-74
2023/02/08 00:40:04;;;;;;;25.80;18.48;;;-0.40;99.90;;;;;;4956319;28;93217;-74
2023/02/08 00:42:32;;;;;;;26.13;17.02;;;-0.50;99.90;;;;;;4955790;28;95757;-74
2023/02/08 00:44:59;;;;;;;31.75;18.63;;;-0.50;99.90;;;;;;4956415;28;93182;-74
2023/02/08 00:47:26;;;;;;;24.30;17.35;;;-0.50;99.90;;;;;;4940311;28;91775;-74
2023/02/08 00:49:53;;;;;;;28.13;18.65;;;-0.50;99.90;;;;;;4939578;28;95709;-75
2023/02/08 00:52:20;;;;;;;27.27;17.98;;;-0.50;99.90;;;;;;4957260;28;93185;-75
2023/02/08 00:54:47;;;;;;;26.98;18.73;;;-0.60;99.90;;;;;;4954678;28;94952;-75
2023/02/08 00:57:14;;;;;;;27.45;18.23;;;-0.60;99.90;;;;;;4955955;28;92494;-75
2023/02/08 00:59:41;;;;;;;26.70;18.77;;;-0.60;99.90;;;;;;4956859;28;92985;-75
2023/02/08 01:02:09;;;;;;;26.42;17.45;;;-0.60;99.90;;;;;;4955642;28;92856;-74
2023/02/08 01:04:37;;;;;;;29.27;18.85;;;-0.60;99.90;;;;;;4955864;28;92444;-75
2023/02/08 01:07:05;;;;;;;25.45;17.38;;;-0.60;99.90;;;;;;4957186;28;92537;-75
2023/02/08 01:09:33;;;;;;;30.45;17.48;;;-0.60;99.90;;;;;;4939219;28;95573;-75
2023/02/08 01:12:00;;;;;;;30.02;18.25;;;-0.60;99.90;;;;;;4955925;28;95792;-75
2023/02/08 01:14:27;;;;;;;28.70;18.70;;;-0.60;99.90;;;;;;4939244;28;92958;-75
2023/02/08 01:16:54;;;;;;;24.95;17.38;;;-0.60;99.90;;;;;;4955691;28;92385;-75
2023/02/08 01:19:22;;;;;;;29.02;18.42;;;-0.60;99.90;;;;;;4938198;28;97725;-75
2023/02/08 01:21:49;;;;;;;30.10;17.98;;;-0.60;99.90;;;;;;4955278;28;95575;-75
2023/02/08 01:24:16;;;;;;;26.48;17.60;;;-0.60;99.90;;;;;;4939470;28;92535;-74
2023/02/08 01:26:43;;;;;;;25.83;17.58;;;-0.60;99.90;;;;;;4955306;28;92546;-75
2023/02/08 01:29:11;;;;;;;27.45;18.33;;;-0.60;99.90;;;;;;4939240;28;94833;-75
2023/02/08 01:31:39;;;;;;;28.52;17.73;;;-0.60;99.90;;;;;;4956564;28;93056;-75
2023/02/08 01:34:07;;;;;;;26.42;18.05;;;-0.60;99.90;;;;;;4955690;28;93192;-75
2023/02/08 01:36:36;;;;;;;26.50;18.15;;;-0.60;99.90;;;;;;4939592;28;91732;-75
2023/02/08 01:39:05;;;;;;;24.88;17.55;;;-0.70;99.90;;;;;;4955299;28;93288;-75
2023/02/08 01:41:35;;;;;;;26.45;17.98;;;-0.70;99.90;;;;;;4955034;28;95427;-74
2023/02/08 01:44:02;;;;;;;27.65;18.23;;;-0.70;99.90;;;;;;4954496;28;95042;-75
2023/02/08 01:46:32;;;;;;;26.83;17.60;;;-0.70;99.90;;;;;;4955358;28;92899;-74
2023/02/08 01:49:16;;;;;;;28.35;18.30;;;-0.70;99.90;;;;;;4955032;28;92423;-75
2023/02/08 01:52:11;;;;;;;28.27;18.63;;;-0.70;99.90;;;;;;4956338;28;93099;-75
2023/02/08 01:54:43;;;;;;;26.42;16.67;;;-0.70;99.90;;;;;;4955087;28;93141;-75
2023/02/08 01:57:11;;;;;;;30.02;18.88;;;-0.80;99.90;;;;;;4955614;28;92351;-75
2023/02/08 01:59:46;;;;;;;28.40;17.77;;;-0.80;99.90;;;;;;4954721;28;96134;-75
2023/02/08 02:02:16;;;;;;;26.92;17.90;;;-0.80;99.90;;;;;;4954728;28;95946;-74
2023/02/08 02:04:43;;;;;;;31.35;19.27;;;-0.80;99.90;;;;;;4954596;28;92509;-75
2023/02/08 02:07:12;;;;;;;29.20;17.83;;;-0.80;99.90;;;;;;4955200;28;92422;-75
2023/02/08 02:09:54;;;;;;;31.27;18.95;;;-0.80;99.90;;;;;;4954149;28;94943;-75
2023/02/08 02:12:21;;;;;;;30.05;18.80;;;-0.80;99.90;;;;;;4955070;28;95451;-74
2023/02/08 02:14:50;;;;;;;33.83;19.67;;;-0.80;99.90;;;;;;4954278;28;92895;-75
2023/02/08 02:17:18;;;;;;;28.25;18.85;;;-0.80;99.90;;;;;;4956151;28;92470;-75
2023/02/08 02:19:54;;;;;;;33.90;20.02;;;-0.80;99.90;;;;;;4955980;28;93400;-75
2023/02/08 02:22:30;;;;;;;30.38;19.42;;;-0.80;99.90;;;;;;4938516;28;95790;-75
2023/02/08 02:25:39;;;;;;;39.05;21.45;;;-0.80;99.90;;;;;;4954620;28;92983;-75
2023/02/08 02:28:32;;;;;;;28.30;18.92;;;-0.80;99.90;;;;;;4954766;28;91888;-75
2023/02/08 02:31:10;;;;;;;29.33;18.87;;;-0.80;99.90;;;;;;4954232;28;96020;-74
2023/02/08 02:33:57;;;;;;;39.08;21.75;;;-0.90;99.90;;;;;;4954697;28;93082;-75
2023/02/08 02:36:31;;;;;;;31.52;20.67;;;-0.90;99.90;;;;;;4955007;28;94833;-75
2023/02/08 02:39:28;;;;;;;34.17;21.23;;;-0.80;99.90;;;;;;4954239;28;92558;-75
2023/02/08 02:44:51;;;;;;;28.98;18.73;;;-0.90;99.90;;;;;;4988659;28;94736;-75
2023/02/08 02:47:40;;;;;;;31.95;19.40;;;-0.90;99.90;;;;;;4954555;28;92434;-74
2023/02/08 02:50:23;;;;;;;33.72;19.67;;;-0.90;99.90;;;;;;4938117;28;92522;-75
2023/02/08 02:53:02;;;;;;;32.50;20.13;;;-0.90;99.90;;;;;;4954662;28;93374;-74
2023/02/08 02:55:35;;;;;;;33.25;20.25;;;-1.00;99.90;;;;;;4938215;28;96053;-75
2023/02/08 02:58:04;;;;;;;32.95;20.52;;;-1.00;99.90;;;;;;4954064;28;92635;-75
2023/02/08 03:00:32;;;;;;;34.53;19.67;;;-1.00;99.90;;;;;;4954381;28;92587;-75
2023/02/08 03:02:59;;;;;;;36.97;21.30;;;-1.00;99.90;;;;;;4952171;28;96886;-75
2023/02/08 03:05:28;;;;;;;36.05;21.15;;;-1.00;99.90;;;;;;4955404;28;95419;-75
2023/02/08 03:08:08;;;;;;;35.92;21.20;;;-1.00;99.90;;;;;;4954086;28;92610;-75
2023/02/08 03:10:54;;;;;;;32.35;19.65;;;-0.90;99.90;;;;;;4955619;28;92403;-75
2023/02/08 03:13:36;;;;;;;31.60;20.60;;;-0.90;99.90;;;;;;4953832;28;95685;-75
2023/02/08 03:16:30;;;;;;;34.75;20.30;;;-1.00;99.90;;;;;;4955184;28;93246;-74
2023/02/08 03:19:18;;;;;;;36.50;21.10;;;-1.00;99.90;;;;;;4955376;28;92411;-74
2023/02/08 03:22:03;;;;;;;33.70;21.48;;;-1.00;99.90;;;;;;4955387;28;91768;-74
2023/02/08 03:24:58;;;;;;;37.78;21.92;;;-1.10;99.90;;;;;;4958950;28;92389;-74
2023/02/08 03:27:41;;;;;;;34.72;22.25;;;-1.00;99.90;;;;;;4957472;28;95515;-74
2023/02/08 03:30:11;;;;;;;37.80;20.92;;;-1.10;99.90;;;;;;4955989;28;94861;-75
2023/02/08 03:32:49;;;;;;;31.48;18.83;;;-1.10;99.90;;;;;;4957694;28;93028;-75
2023/02/08 03:35:26;;;;;;;38.20;21.05;;;-1.10;99.90;;;;;;4957472;28;93308;-75
2023/02/08 03:37:55;;;;;;;30.25;18.70;;;-1.10;99.90;;;;;;4958488;28;92964;-75
2023/02/08 03:40:29;;;;;;;33.60;19.88;;;-1.10;99.90;;;;;;4958269;28;92510;-75
2023/02/08 03:43:07;;;;;;;33.80;20.95;;;-1.20;99.90;;;;;;4957357;28;93103;-74
2023/02/08 03:45:52;;;;;;;37.00;20.75;;;-1.20;99.90;;;;;;4958456;28;93264;-75
2023/02/08 03:48:22;;;;;;;35.58;20.25;;;-1.20;99.90;;;;;;4958776;28;92786;-75
2023/02/08 03:50:52;;;;;;;34.78;21.08;;;-1.20;99.90;;;;;;4956869;28;92923;-75
2023/02/08 03:53:22;;;;;;;32.58;19.85;;;-1.20;99.90;;;;;;4958455;28;92455;-74
2023/02/08 03:55:56;;;;;;;38.25;21.65;;;-1.20;99.90;;;;;;4956832;28;95815;-75
2023/02/08 03:58:46;;;;;;;38.90;23.30;;;-1.20;99.90;;;;;;4957257;28;94351;-74
2023/02/08 04:01:22;;;;;;;34.85;21.73;;;-1.20;99.90;;;;;;4956266;28;92561;-75
2023/02/08 04:03:52;;;;;;;34.50;20.23;;;-1.20;99.90;;;;;;4958451;28;92426;-75
2023/02/08 04:06:21;;;;;;;37.83;21.58;;;-1.20;99.90;;;;;;4957002;28;93371;-75
2023/02/08 04:08:49;;;;;;;37.97;21.92;;;-1.20;99.90;;;;;;4956593;28;94882;-75
2023/02/08 04:11:16;;;;;;;40.20;22.20;;;-1.20;99.90;;;;;;4956152;28;100091;-75
2023/02/08 04:13:43;;;;;;;42.63;23.10;;;-1.20;99.90;;;;;;4940519;28;91813;-74
2023/02/08 04:16:11;;;;;;;46.53;25.20;;;-1.20;99.90;;;;;;4956293;28;93310;-74
2023/02/08 04:18:38;;;;;;;41.72;23.95;;;-1.20;99.90;;;;;;4956456;28;94616;-74
2023/02/08 04:21:06;;;;;;;41.30;23.50;;;-1.20;99.90;;;;;;4955318;28;96883;-74
2023/02/08 04:23:33;;;;;;;44.20;23.38;;;-1.20;99.90;;;;;;4957805;28;92457;-74
2023/02/08 04:25:59;;;;;;;41.50;23.65;;;-1.20;99.90;;;;;;4956108;28;95896;-74
2023/02/08 04:28:26;;;;;;;41.88;24.30;;;-1.20;99.90;;;;;;4940073;28;93099;-74
2023/02/08 04:30:55;;;;;;;42.13;23.45;;;-1.20;99.90;;;;;;4956715;28;92600;-75
2023/02/08 04:33:23;;;;;;;44.50;24.23;;;-1.20;99.90;;;;;;4955638;28;98630;-74
2023/02/08 04:35:50;;;;;;;40.35;23.50;;;-1.20;99.90;;;;;;4956410;28;93351;-75
2023/02/08 04:38:17;;;;;;;41.58;23.20;;;-1.20;99.90;;;;;;4940121;28;95683;-74
2023/02/08 04:40:44;;;;;;;45.15;24.08;;;-1.20;99.90;;;;;;4940215;28;93057;-74
2023/02/08 04:43:11;;;;;;;40.50;22.75;;;-1.20;99.90;;;;;;4955778;28;92425;-74
2023/02/08 04:45:38;;;;;;;38.35;21.73;;;-1.20;99.90;;;;;;4954904;28;98244;-74
2023/02/08 04:48:06;;;;;;;40.97;23.65;;;-1.20;99.90;;;;;;4955677;28;98148;-74
2023/02/08 04:50:33;;;;;;;40.47;23.30;;;-1.20;99.90;;;;;;4956422;28;92966;-74
2023/02/08 04:53:01;;;;;;;42.55;24.00;;;-1.20;99.90;;;;;;4955768;28;92520;-74
2023/02/08 04:55:28;;;;;;;40.25;22.75;;;-1.20;99.90;;;;;;4955929;28;93206;-75
2023/02/08 04:57:55;;;;;;;40.08;23.25;;;-1.20;99.90;;;;;;4957614;28;93105;-74
2023/02/08 05:00:22;;;;;;;38.42;22.85;;;-1.20;99.90;;;;;;4956016;28;92592;-74
2023/02/08 05:03:09;;;;;;;37.47;22.75;;;-1.20;99.90;;;;;;4956074;28;91900;-74
2023/02/08 05:05:36;;;;;;;40.05;23.02;;;-1.20;99.90;;;;;;4956111;28;93260;-74
2023/02/08 05:08:03;;;;;;;43.70;23.77;;;-1.30;99.90;;;;;;4955790;28;92876;-74
2023/02/08 05:10:30;;;;;;;42.65;24.45;;;-1.30;99.90;;;;;;4938786;28;95010;-74
2023/02/08 05:12:57;;;;;;;38.20;22.40;;;-1.30;99.90;;;;;;4956047;28;92514;-75
2023/02/08 05:15:25;;;;;;;39.13;23.23;;;-1.20;99.90;;;;;;4955745;28;93152;-74
2023/02/08 05:17:52;;;;;;;46.38;23.95;;;-1.20;99.90;;;;;;4939359;28;95893;-74
2023/02/08 05:20:20;;;;;;;42.90;23.90;;;-1.20;99.90;;;;;;4955609;28;92423;-74
2023/02/08 05:22:47;;;;;;;45.10;25.33;;;-1.20;99.90;;;;;;4923394;28;92573;-75
2023/02/08 05:25:14;;;;;;;43.78;24.65;;;-1.20;99.90;;;;;;4955176;28;95734;-74
2023/02/08 05:27:41;;;;;;;43.13;24.77;;;-1.20;99.90;;;;;;4939752;28;93071;-74
2023/02/08 05:30:09;;;;;;;41.10;24.15;;;-1.20;99.90;;;;;;4939247;28;92432;-74
2023/02/08 05:32:36;;;;;;;44.72;24.17;;;-1.20;99.90;;;;;;4957100;28;92855;-74
2023/02/08 05:35:03;;;;;;;42.40;24.25;;;-1.20;99.90;;;;;;4955143;28;95993;-74
2023/02/08 05:37:30;;;;;;;40.58;23.65;;;-1.20;99.90;;;;;;4923068;28;98786;-74
2023/02/08 05:39:57;;;;;;;40.55;22.65;;;-1.20;99.90;;;;;;4955459;28;92389;-74
2023/02/08 05:42:24;;;;;;;39.65;21.70;;;-1.20;99.90;;;;;;4939332;28;92886;-74
2023/02/08 05:44:51;;;;;;;42.22;23.20;;;-1.10;99.90;;;;;;4955577;28;93602;-74
2023/02/08 05:47:18;;;;;;;41.20;22.67;;;-1.10;99.90;;;;;;4955000;28;93057;-74
2023/02/08 05:49:45;;;;;;;42.22;23.88;;;-1.10;99.90;;;;;;4956522;28;92479;-74
2023/02/08 05:52:12;;;;;;;42.72;22.92;;;-1.10;99.90;;;;;;4955464;28;91741;-75
2023/02/08 05:54:39;;;;;;;40.20;24.38;;;-1.10;99.90;;;;;;4955163;28;93319;-74
2023/02/08 05:57:07;;;;;;;38.65;23.55;;;-1.10;99.90;;;;;;4956399;28;92989;-75
2023/02/08 05:59:34;;;;;;;37.17;23.13;;;-1.10;99.90;;;;;;4954011;28;95548;-74
2023/02/08 06:02:01;;;;;;;41.28;23.08;;;-1.10;99.90;;;;;;4955668;28;92562;-74
2023/02/08 06:04:28;;;;;;;42.75;23.55;;;-1.10;99.90;;;;;;4955884;28;93352;-75
2023/02/08 06:06:55;;;;;;;39.05;23.85;;;-1.10;99.90;;;;;;4939001;28;92483;-75
2023/02/08 06:09:22;;;;;;;39.72;23.90;;;-1.10;99.90;;;;;;4938683;28;92921;-74
2023/02/08 06:11:49;;;;;;;36.80;22.50;;;-1.10;99.90;;;;;;4938964;28;93556;-75
2023/02/08 06:14:16;;;;;;;38.15;21.35;;;-1.10;99.90;;;;;;4938259;28;94997;-75
2023/02/08 06:16:43;;;;;;;40.45;22.50;;;-1.10;99.90;;;;;;4955168;28;93095;-74
2023/02/08 06:19:10;;;;;;;38.00;22.20;;;-1.10;99.90;;;;;;4954749;28;92955;-75
2023/02/08 06:21:37;;;;;;;41.33;22.50;;;-1.10;99.90;;;;;;4954940;28;92552;-74
2023/02/08 06:24:05;;;;;;;37.67;21.10;;;-1.10;99.90;;;;;;4953240;28;98519;-74
2023/02/08 06:26:33;;;;;;;44.80;22.98;;;-1.10;99.90;;;;;;4954233;28;103103;-75
2023/02/08 06:29:00;;;;;;;42.88;22.42;;;-1.10;99.90;;;;;;4955920;28;92387;-75
2023/02/08 06:31:27;;;;;;;43.53;24.75;;;-1.10;99.90;;;;;;4954347;28;93020;-74
2023/02/08 06:33:54;;;;;;;38.88;22.55;;;-1.10;99.90;;;;;;4954311;28;95658;-74
2023/02/08 06:36:21;;;;;;;39.42;22.27;;;-1.10;99.90;;;;;;4955557;28;93057;-75
2023/02/08 06:38:48;;;;;;;40.28;23.08;;;-1.10;99.90;;;;;;4955910;28;92589;-74
2023/02/08 06:41:17;;;;;;;41.40;23.20;;;-1.10;99.90;;;;;;4954601;28;91860;-74
2023/02/08 06:43:44;;;;;;;41.00;23.45;;;-1.10;99.90;;;;;;4954377;28;93375;-75
2023/02/08 06:46:11;;;;;;;36.58;21.58;;;-1.10;99.90;;;;;;4955524;28;93093;-74
2023/02/08 06:48:38;;;;;;;42.85;24.15;;;-1.10;99.90;;;;;;4953106;28;94869;-75
2023/02/08 06:51:05;;;;;;;44.97;22.40;;;-1.10;99.90;;;;;;4954438;28;92522;-74
2023/02/08 06:53:32;;;;;;;40.08;22.33;;;-1.20;99.90;;;;;;4955119;28;100181;-74
2023/02/08 06:55:59;;;;;;;38.83;22.65;;;-1.20;99.90;;;;;;4953595;28;94084;-75
2023/02/08 06:58:26;;;;;;;37.40;21.70;;;-1.20;99.90;;;;;;4937542;28;92544;-75
2023/02/08 07:00:53;;;;;;;41.55;24.35;;;-1.20;99.90;;;;;;4955477;28;93375;-75
2023/02/08 07:03:21;;;;;;;42.13;24.35;;;-1.20;99.90;;;;;;4955037;28;93387;-75
2023/02/08 07:05:48;;;;;;;39.10;21.55;;;-1.20;99.90;;;;;;4955599;28;93316;-75
2023/02/08 07:08:30;;;;;;;35.33;21.85;;;-1.10;99.90;;;;;;4954489;28;92507;-74
2023/02/08 07:10:57;;;;;;;42.95;24.27;;;-1.10;99.90;;;;;;4955242;28;92471;-75
2023/02/08 07:13:24;;;;;;;39.42;22.65;;;-1.10;99.90;;;;;;4953598;28;97530;-74
2023/02/08 07:15:51;;;;;;;44.67;23.25;;;-1.10;99.90;;;;;;4937609;28;95396;-75
2023/02/08 07:18:18;;;;;;;44.67;24.75;;;-1.00;99.90;;;;;;4955176;28;92384;-75
2023/02/08 07:20:48;;;;;;;39.75;22.92;;;-1.00;99.90;;;;;;4955144;28;92530;-75
2023/02/08 07:23:15;;;;;;;40.22;23.35;;;-1.00;99.90;;;;;;4955247;28;93358;-74
2023/02/08 07:25:42;;;;;;;40.20;23.40;;;-1.00;99.90;;;;;;4953125;28;95928;-74
2023/02/08 07:28:12;;;;;;;40.72;23.60;;;-1.00;99.90;;;;;;4955390;28;92918;-74
2023/02/08 07:30:39;;;;;;;38.10;23.15;;;-0.90;99.90;;;;;;4955354;28;92360;-74
2023/02/08 07:33:07;;;;;;;39.55;22.25;;;-0.90;99.90;;;;;;4953903;28;93168;-74
2023/02/08 07:35:33;;;;;;;42.80;23.48;;;-0.80;99.90;;;;;;4954735;28;93292;-75
2023/02/08 07:38:00;;;;;;;32.53;20.35;;;-0.80;99.90;;;;;;4954049;28;94759;-75
2023/02/08 07:40:27;;;;;;;33.85;20.48;;;-0.70;99.90;;;;;;4953406;28;92612;-75
2023/02/08 07:42:56;;;;;;;37.13;21.65;;;-0.60;99.90;;;;;;4937530;28;96152;-74
2023/02/08 07:45:38;;;;;;;34.55;22.17;;;-0.50;99.90;;;;;;4938493;28;93806;-75
2023/02/08 07:48:05;;;;;;;34.75;20.35;;;-0.40;99.90;;;;;;4953920;28;92578;-75
2023/02/08 07:50:32;;;;;;;30.55;19.40;;;-0.30;99.90;;;;;;4953553;28;92454;-75
2023/02/08 07:52:59;;;;;;;37.40;22.45;;;-0.10;99.90;;;;;;4953400;28;95776;-75
2023/02/08 07:55:26;;;;;;;34.00;20.25;;;0.00;99.90;;;;;;4954931;28;92797;-75
2023/02/08 07:57:55;;;;;;;34.55;20.90;;;0.10;99.90;;;;;;4955061;28;92479;-74
2023/02/08 08:00:23;;;;;;;33.22;19.95;;;0.20;99.90;;;;;;4955066;28;92472;-75
2023/02/08 08:02:50;;;;;;;30.73;20.20;;;0.30;99.90;;;;;;4952161;28;95657;-75
2023/02/08 08:05:17;;;;;;;33.00;20.73;;;0.40;99.90;;;;;;4953059;28;95583;-75
2023/02/08 08:07:44;;;;;;;29.55;19.60;;;0.50;99.90;;;;;;4954271;28;93025;-75
2023/02/08 08:10:11;;;;;;;31.60;20.05;;;0.60;99.90;;;;;;4956753;28;92570;-76
2023/02/08 08:12:38;;;;;;;31.10;21.02;;;0.70;99.90;;;;;;4956511;28;92441;-75
2023/02/08 08:15:06;;;;;;;32.42;21.90;;;0.80;99.90;;;;;;4956388;28;96021;-76
2023/02/08 08:17:33;;;;;;;32.78;20.50;;;0.90;99.90;;;;;;4956584;28;92623;-76
2023/02/08 08:20:00;;;;;;;33.40;19.52;;;1.00;99.90;;;;;;4908615;28;91816;-76
2023/02/08 08:22:27;;;;;;;31.40;18.88;;;1.20;99.90;;;;;;4956386;28;93217;-75
2023/02/08 08:24:54;;;;;;;32.70;20.45;;;1.30;99.90;;;;;;4957692;28;93339;-76
2023/02/08 08:27:21;;;;;;;34.88;18.92;;;1.40;99.90;;;;;;4939267;28;94828;-76
2023/02/08 08:29:48;;;;;;;36.50;23.08;;;1.50;99.90;;;;;;4940349;28;92521;-76
2023/02/08 08:32:15;;;;;;;38.35;21.65;;;1.50;99.90;;;;;;4940053;28;93583;-75
2023/02/08 08:34:42;;;;;;;35.88;20.63;;;1.50;99.90;;;;;;4956235;28;94174;-75
2023/02/08 08:37:09;;;;;;;33.80;21.73;;;1.50;99.90;;;;;;4956680;28;92803;-75
2023/02/08 08:39:36;;;;;;;35.85;21.25;;;1.40;99.90;;;;;;4956478;28;92493;-76
2023/02/08 08:42:03;;;;;;;36.40;21.70;;;1.40;99.90;;;;;;4957423;28;92475;-74
2023/02/08 08:44:30;;;;;;;31.95;20.60;;;1.40;99.90;;;;;;4940210;28;93022;-74
2023/02/08 08:46:58;;;;;;;29.75;18.27;;;1.40;99.90;;;;;;4956039;28;93084;-76
2023/02/08 08:49:27;;;;;;;35.13;20.52;;;1.40;99.90;;;;;;4957522;28;92372;-74
2023/02/08 08:51:54;;;;;;;36.38;19.52;;;1.40;99.90;;;;;;4938534;28;96279;-75
2023/02/08 08:54:21;;;;;;;32.88;19.88;;;1.40;99.90;;;;;;4955997;28;95404;-74
2023/02/08 08:56:48;;;;;;;31.10;19.92;;;1.40;99.90;;;;;;4956045;28;92457;-74
2023/02/08 08:59:15;;;;;;;32.15;20.23;;;1.40;99.90;;;;;;4956417;28;92859;-74
2023/02/08 09:01:42;;;;;;;33.03;19.02;;;1.40;99.90;;;;;;4955802;28;93267;-74
2023/02/08 09:04:11;;;;;;;29.33;19.60;;;1.50;99.90;;;;;;4956679;28;92634;-74
2023/02/08 09:06:38;;;;;;;32.95;20.38;;;1.50;99.90;;;;;;4939586;28;92717;-74
2023/02/08 09:09:05;;;;;;;28.73;17.50;;;1.60;99.90;;;;;;4956249;28;91753;-74
2023/02/08 09:11:33;;;;;;;31.00;19.58;;;1.70;99.90;;;;;;4955719;28;92418;-74
2023/02/08 09:14:03;;;;;;;30.20;19.88;;;1.70;99.90;;;;;;4956907;28;93872;-74
2023/02/08 09:16:31;;;;;;;33.53;19.48;;;1.80;99.90;;;;;;4956144;28;95356;-74
2023/02/08 09:19:06;;;;;;;31.30;19.90;;;1.80;99.90;;;;;;4956100;28;92567;-74
2023/02/08 09:21:33;;;;;;;30.27;18.58;;;2.00;99.90;;;;;;4939325;28;94522;-75
2023/02/08 09:24:02;;;;;;;31.13;19.73;;;2.00;99.90;;;;;;4955682;28;93225;-74
2023/02/08 09:26:29;;;;;;;27.48;18.38;;;2.10;99.90;;;;;;4956687;28;92948;-74
2023/02/08 09:28:56;;;;;;;34.67;21.17;;;2.20;99.90;;;;;;4955318;28;92523;-74
2023/02/08 09:31:26;;;;;;;35.90;21.48;;;2.30;99.90;;;;;;4955388;28;95735;-74
2023/02/08 09:33:56;;;;;;;30.77;19.15;;;2.40;99.90;;;;;;4939474;28;95539;-74
2023/02/08 09:36:26;;;;;;;24.45;16.75;;;2.40;99.90;;;;;;4956616;28;92395;-74
2023/02/08 09:39:03;;;;;;;28.52;17.88;;;2.50;99.90;;;;;;4956724;28;93039;-74
2023/02/08 09:41:41;;;;;;;31.13;18.90;;;2.60;99.90;;;;;;4955200;28;95633;-74
2023/02/08 09:44:17;;;;;;;29.60;19.52;;;2.70;99.90;;;;;;4956621;28;95345;-74
2023/02/08 09:47:08;;;;;;;29.00;19.05;;;2.70;99.90;;;;;;4955483;28;92499;-74
2023/02/08 09:49:56;;;;;;;30.58;17.77;;;2.80;99.90;;;;;;4956467;28;92447;-74
2023/02/08 09:52:32;;;;;;;25.80;17.80;;;2.90;99.90;;;;;;4956531;28;93312;-74
2023/02/08 09:55:03;;;;;;;26.50;17.13;;;3.00;99.90;;;;;;4955187;28;93403;-74
2023/02/08 09:57:33;;;;;;;28.27;18.08;;;3.00;99.90;;;;;;4956346;28;92372;-74
2023/02/08 10:00:08;;;;;;;25.10;17.40;;;3.10;99.90;;;;;;4956676;28;91702;-74
2023/02/08 10:02:35;;;;;;;24.33;17.40;;;3.20;99.90;;;;;;4938017;28;96304;-74
2023/02/08 10:05:16;;;;;;;25.23;16.88;;;3.20;99.90;;;;;;4955568;28;93162;-74
2023/02/08 10:07:43;;;;;;;26.33;17.65;;;3.40;99.90;;;;;;4955049;28;94905;-74
2023/02/08 10:11:02;;;;;;;28.15;17.90;;;3.40;99.90;;;;;;4955125;28;92576;-74
2023/02/08 10:14:02;;;;;;;23.67;15.63;;;3.50;99.90;;;;;;4950788;28;95761;-74
2023/02/08 10:16:44;;;;;;;25.83;16.63;;;3.60;99.90;;;;;;4953626;28;95744;-74
2023/02/08 10:19:32;;;;;;;27.58;16.98;;;3.60;99.90;;;;;;4954823;28;93313;-74
2023/02/08 10:22:14;;;;;;;25.85;17.05;;;3.60;99.90;;;;;;4956167;28;92474;-74
2023/02/08 10:25:09;;;;;;;28.75;18.40;;;3.60;99.90;;;;;;4954645;28;93361;-74
2023/02/08 10:27:50;;;;;;;24.83;16.92;;;3.70;99.90;;;;;;4954997;28;96099;-74
2023/02/08 10:30:26;;;;;;;26.75;16.90;;;3.70;99.90;;;;;;4954372;28;92537;-73
2023/02/08 10:33:01;;;;;;;22.48;16.50;;;3.80;99.90;;;;;;4955827;28;92502;-74
2023/02/08 10:35:36;;;;;;;25.50;16.98;;;3.80;99.90;;;;;;4953081;28;98524;-74
2023/02/08 10:38:18;;;;;;;24.45;16.42;;;3.90;99.90;;;;;;4954401;28;95426;-74
2023/02/08 10:40:51;;;;;;;22.15;16.42;;;4.00;99.90;;;;;;4955717;28;92463;-74
2023/02/08 10:43:34;;;;;;;24.23;16.27;;;4.00;99.90;;;;;;4954458;28;92460;-74
2023/02/08 10:46:33;;;;;;;24.85;15.32;;;4.20;99.90;;;;;;4954366;28;93301;-74
2023/02/08 10:49:13;;;;;;;22.85;17.13;;;4.30;99.90;;;;;;4953948;28;95868;-74
2023/02/08 10:51:40;;;;;;;26.60;17.17;;;4.30;99.90;;;;;;4955836;28;92562;-74
2023/02/08 10:54:14;;;;;;;21.88;15.20;;;4.30;99.90;;;;;;4954414;28;92028;-74
2023/02/08 10:56:50;;;;;;;;;;;4.40;99.90;;;;;;4955034;28;93724;-73
2023/02/08 10:59:25;;;;;;;21.35;16.33;;;4.40;99.90;;;;;;4957361;28;93094;-73
2023/02/08 11:01:55;;;;;;;21.35;14.10;;;4.50;99.90;;;;;;4953116;28;94832;-74
2023/02/08 11:04:22;;;;;;;20.50;15.10;;;4.50;99.90;;;;;;4953691;28;92544;-74
2023/02/08 11:06:50;;;;;;;22.70;14.82;;;4.60;99.90;;;;;;4953769;28;96034;-74
2023/02/08 11:09:25;;;;;;;20.55;14.63;;;4.70;99.90;;;;;;4953869;28;96129;-73
2023/02/08 11:11:53;;;;;;;19.63;14.57;;;4.80;99.90;;;;;;4953705;28;93053;-74
2023/02/08 11:14:32;;;;;;;22.70;15.13;;;4.80;99.90;;;;;;4955494;28;92482;-74
2023/02/08 11:17:29;;;;;;;18.98;14.07;;;5.00;99.90;;;;;;4953493;28;95818;-74
2023/02/08 11:19:57;;;;;;;19.02;13.48;;;5.10;99.90;;;;;;4955733;28;93028;-74
2023/02/08 11:22:29;;;;;;;19.73;13.35;;;5.10;99.90;;;;;;4937949;28;92540;-74
2023/02/08 11:25:04;;;;;;;17.13;12.85;;;5.10;99.90;;;;;;4953854;28;92903;-74
2023/02/08 11:27:35;;;;;;;19.23;13.88;;;5.20;99.90;;;;;;4952408;28;98573;-74
2023/02/08 11:30:23;;;;;;;17.50;13.85;;;5.30;99.90;;;;;;4955001;28;94628;-74
2023/02/08 11:33:17;;;;;;;16.80;11.52;;;5.30;99.90;;;;;;4953733;28;92432;-74
2023/02/08 11:35:59;;;;;;;17.40;13.43;;;5.30;99.90;;;;;;4953653;28;92507;-74
2023/02/08 11:38:27;;;;;;;19.83;13.55;;;5.40;99.90;;;;;;4953659;28;93783;-74
2023/02/08 11:40:57;;;;;;;14.27;10.90;;;5.40;99.90;;;;;;4954698;28;93132;-74
2023/02/08 11:43:30;;;;;;;18.50;12.75;;;5.50;99.90;;;;;;4957312;28;92501;-73
2023/02/08 11:45:59;;;;;;;17.47;12.50;;;5.60;99.90;;;;;;4946685;28;91745;-74
2023/02/08 11:48:47;;;;;;;17.60;12.10;;;5.60;99.90;;;;;;4940480;28;95579;-76
2023/02/08 11:51:30;;;;;;;16.80;12.65;;;5.80;99.90;;;;;;4958327;28;93745;-74
2023/02/08 11:53:59;;;;;;;16.88;12.57;;;5.80;99.90;;;;;;4955928;28;95001;-75
2023/02/08 11:56:29;;;;;;;17.13;12.18;;;5.70;99.90;;;;;;4957021;28;92931;-74
2023/02/08 11:59:01;;;;;;;16.52;12.38;;;5.80;99.90;;;;;;4957625;28;93223;-74
2023/02/08 12:01:36;;;;;;;18.17;13.10;;;5.80;99.90;;;;;;4958439;28;93107;-74
2023/02/08 12:04:06;;;;;;;17.85;11.35;;;5.90;99.90;;;;;;4940085;28;92894;-74
2023/02/08 12:07:00;;;;;;;19.33;12.70;;;5.90;99.90;;;;;;4958344;28;92525;-75
2023/02/08 12:09:57;;;;;;;17.60;12.07;;;5.90;99.90;;;;;;4956175;28;96057;-75
2023/02/08 12:12:54;;;;;;;15.60;11.35;;;6.00;99.90;;;;;;4940338;28;95358;-74
2023/02/08 12:15:36;;;;;;;17.80;11.98;;;6.00;99.90;;;;;;4956276;28;92523;-75
2023/02/08 12:18:32;;;;;;;15.50;11.52;;;6.00;99.90;;;;;;4956979;28;92500;-75
2023/02/08 12:21:13;;;;;;;14.77;10.45;;;6.10;99.90;;;;;;4956684;28;95380;-75
2023/02/08 12:23:55;;;;;;;13.57;10.68;;;6.10;99.90;;;;;;4956335;28;98137;-75
2023/02/08 12:26:30;;;;;;;12.82;10.15;;;6.20;99.90;;;;;;4957581;28;92420;-75
2023/02/08 12:29:18;;;;;;;13.40;10.48;;;6.20;99.90;;;;;;4956641;28;92534;-75
2023/02/08 12:32:42;;;;;;;11.63;9.60;;;6.30;99.90;;;;;;4944196;28;93250;-75
2023/02/08 12:35:41;;;;;;;11.30;9.63;;;6.40;99.90;;;;;;4936135;28;93267;-75
2023/02/08 12:41:54;;;;;;;12.40;9.43;;;6.50;99.90;;;;;;4958260;28;91692;-75
2023/02/08 12:45:04;;;;;;;12.40;8.93;;;6.60;99.90;;;;;;4958080;28;93249;-75
2023/02/08 12:48:08;;;;;;;11.50;8.52;;;6.70;99.90;;;;;;4956361;28;95897;-75
2023/02/08 12:50:50;;;;;;;9.98;8.43;;;6.70;99.80;;;;;;4938294;28;94912;-75
2023/02/08 12:53:36;;;;;;;13.55;9.50;;;6.70;99.50;;;;;;4955871;28;92490;-75
2023/02/08 12:56:11;;;;;;;13.68;9.65;;;6.70;99.50;;;;;;4957522;28;94506;-74
2023/02/08 12:58:45;;;;;;;11.30;9.25;;;6.90;99.80;;;;;;4956237;28;93261;-75
2023/02/08 13:01:21;;;;;;;12.70;9.00;;;7.00;99.60;;;;;;4956272;28;92482;-74
2023/02/08 13:04:14;;;;;;;10.13;8.75;;;7.00;99.40;;;;;;4957865;28;92522;-74